Time;durP1;ratioP1;P1;durP2;ratioP2;P2;SDS_P1;SDS_P2;PMS_P1;PMS_P2;Temp;Humidity;BMP_temperature;BMP_pressure;BME280_temperature;BME280_humidity;BME280_pressure;Samples;Min_cycle;Max_cycle;Signal;HPM_P1;HPM_P2
2024/02/03 00:01:37;;;;;;;;;;;;;;;8.26;88.09;101298.97;4212636;28;20023;-68
2024/02/03 00:03:40;;;;;;;;;;;;;;;8.28;88.15;101301.50;4212721;28;20018;-69
2024/02/03 00:05:43;;;;;;;;;;;;;;;8.29;88.20;101284.34;4212936;28;20015;-68
2024/02/03 00:07:45;;;;;;;;;;;;;;;8.29;88.30;101295.13;4212829;28;20390;-70
2024/02/03 00:09:57;;;;;;;;;;;;;;;8.31;88.45;101301.22;4212253;28;20035;-68
2024/02/03 00:12:07;;;;;;;;;;;;;;;8.31;88.23;101295.84;4194187;28;20019;-68
2024/02/03 00:14:10;;;;;;;;;;;;;;;8.30;88.56;101297.66;4211185;28;20680;-68
2024/02/03 00:16:13;;;;;;;;;;;;;;;8.31;88.53;101293.13;4212486;28;20036;-69
2024/02/03 00:18:15;;;;;;;;;;;;;;;8.31;88.22;101290.44;4213043;28;20449;-67
2024/02/03 00:20:17;;;;;;;;;;;;;;;8.34;88.59;101321.59;4211294;28;20014;-67
2024/02/03 00:22:19;;;;;;;;;;;;;;;8.33;88.42;101288.44;4212809;28;20027;-68
2024/02/03 00:24:21;;;;;;;;;;;;;;;8.34;88.45;101294.66;4213595;28;20380;-68
2024/02/03 00:26:24;;;;;;;;;;;;;;;8.36;88.81;101284.63;4193981;28;20027;-69
2024/02/03 00:28:26;;;;;;;;;;;;;;;8.35;88.73;101296.38;4211733;28;20031;-68
2024/02/03 00:30:29;;;;;;;;;;;;;;;8.35;88.94;101277.53;4210912;28;20015;-68
2024/02/03 00:32:31;;;;;;;;;;;;;;;8.33;88.98;101287.59;4210229;28;20027;-67
2024/02/03 00:34:32;;;;;;;;;;;;;;;8.35;88.75;101294.53;4185250;28;20275;-68
2024/02/03 00:36:35;;;;;;;;;;;;;;;8.34;89.12;101289.28;4210992;28;20015;-68
2024/02/03 00:38:37;;;;;;;;;;;;;;;8.35;88.86;101280.22;4212700;28;20030;-67
2024/02/03 00:40:40;;;;;;;;;;;;;;;8.38;88.85;101282.63;4210607;28;20015;-67
2024/02/03 00:42:43;;;;;;;;;;;;;;;8.37;88.68;101299.75;4210726;28;20309;-68
2024/02/03 00:44:45;;;;;;;;;;;;;;;8.37;88.93;101291.69;4211061;28;20006;-67
2024/02/03 00:46:48;;;;;;;;;;;;;;;8.37;88.91;101294.38;4211987;28;20022;-68
2024/02/03 00:48:51;;;;;;;;;;;;;;;8.34;88.97;101298.22;4195007;28;19928;-68
2024/02/03 00:50:53;;;;;;;;;;;;;;;8.34;88.84;101300.06;4211051;28;20018;-67
2024/02/03 00:52:55;;;;;;;;;;;;;;;8.35;88.86;101293.69;4210905;28;20480;-68
2024/02/03 00:54:57;;;;;;;;;;;;;;;8.36;88.61;101292.69;4212367;28;20023;-68
2024/02/03 00:56:58;;;;;;;;;;;;;;;8.38;88.50;101293.38;4211608;28;20015;-68
2024/02/03 00:59:00;;;;;;;;;;;;;;;8.39;88.82;101287.03;4211400;28;20018;-67
2024/02/03 01:01:02;;;;;;;;;;;;;;;8.38;88.68;101285.31;4210758;28;20046;-67
2024/02/03 01:03:06;;;;;;;;;;;;;;;8.40;88.85;101288.69;4209223;28;20036;-69
2024/02/03 01:05:08;;;;;;;;;;;;;;;8.40;88.68;101273.41;4211206;28;20406;-67
2024/02/03 01:07:10;;;;;;;;;;;;;;;8.41;88.84;101288.53;4211130;28;20022;-67
2024/02/03 01:09:16;;;;;;;;;;;;;;;8.40;88.67;101289.56;4209434;28;20018;-68
2024/02/03 01:11:18;;;;;;;;;;;;;;;8.42;89.04;101289.41;4210632;28;20015;-67
2024/02/03 01:13:21;;;;;;;;;;;;;;;8.41;89.09;101293.09;4211681;28;20027;-68
2024/02/03 01:15:23;;;;;;;;;;;;;;;8.43;88.85;101286.59;4211870;28;20010;-67
2024/02/03 01:17:26;;;;;;;;;;;;;;;8.45;88.75;101289.16;4211237;28;20019;-67
2024/02/03 01:19:29;;;;;;;;;;;;;;;8.43;88.73;101278.53;4190873;28;20416;-68
2024/02/03 01:21:31;;;;;;;;;;;;;;;8.45;88.79;101283.75;4177271;28;20020;-68
2024/02/03 01:23:34;;;;;;;;;;;;;;;8.45;88.82;101279.22;4210020;28;20042;-68
2024/02/03 01:25:36;;;;;;;;;;;;;;;8.45;89.10;101281.91;4211446;28;20019;-69
2024/02/03 01:27:38;;;;;;;;;;;;;;;8.45;88.99;101289.16;4212093;28;20019;-68
2024/02/03 01:29:40;;;;;;;;;;;;;;;8.46;89.20;101280.06;4210315;28;19951;-68
2024/02/03 01:31:42;;;;;;;;;;;;;;;8.46;89.04;101283.59;4210521;28;20011;-68
2024/02/03 01:33:44;;;;;;;;;;;;;;;8.48;88.99;101280.78;4211936;28;20026;-68
2024/02/03 01:35:47;;;;;;;;;;;;;;;8.48;89.14;101284.31;4211629;28;20027;-68
2024/02/03 01:37:49;;;;;;;;;;;;;;;8.50;89.12;101278.75;4211735;28;20024;-68
2024/02/03 01:39:50;;;;;;;;;;;;;;;8.48;88.79;101289.69;4210522;28;20014;-68
2024/02/03 01:41:52;;;;;;;;;;;;;;;8.51;88.93;101291.25;4210108;28;19924;-68
2024/02/03 01:43:55;;;;;;;;;;;;;;;8.49;88.88;101287.81;4210796;28;20027;-68
2024/02/03 01:45:57;;;;;;;;;;;;;;;8.51;89.00;101288.53;4211486;28;20015;-68
2024/02/03 01:47:59;;;;;;;;;;;;;;;8.51;89.04;101291.25;4211272;28;20022;-68
2024/02/03 01:50:01;;;;;;;;;;;;;;;8.52;89.06;101292.06;4211215;28;19964;-68
2024/02/03 01:52:05;;;;;;;;;;;;;;;8.53;88.85;101283.84;4193615;28;20464;-68
2024/02/03 01:54:07;;;;;;;;;;;;;;;8.55;88.95;101305.25;4211472;28;20368;-68
2024/02/03 01:56:09;;;;;;;;;;;;;;;8.56;89.07;101296.19;4210392;28;20039;-67
2024/02/03 01:58:11;;;;;;;;;;;;;;;8.57;88.93;101279.84;4192627;28;19971;-67
2024/02/03 02:00:14;;;;;;;;;;;;;;;8.58;89.17;101291.47;4209389;28;20014;-67
2024/02/03 02:02:16;;;;;;;;;;;;;;;8.58;88.86;101295.00;4211059;28;20378;-68
2024/02/03 02:04:19;;;;;;;;;;;;;;;8.58;88.97;101284.22;4210491;28;20014;-67
2024/02/03 02:06:21;;;;;;;;;;;;;;;8.58;88.84;101292.31;4210555;28;20035;-68
2024/02/03 02:08:32;;;;;;;;;;;;;;;8.60;88.87;101281.41;4211703;28;20449;-67
2024/02/03 02:10:34;;;;;;;;;;;;;;;8.61;88.92;101291.19;4210433;28;20342;-68
2024/02/03 02:12:37;;;;;;;;;;;;;;;8.61;89.12;101292.00;4210701;28;20015;-67
2024/02/03 02:14:39;;;;;;;;;;;;;;;8.62;89.00;101290.16;4211207;28;20051;-67
2024/02/03 02:16:41;;;;;;;;;;;;;;;8.62;89.36;101284.78;4211456;28;20047;-68
2024/02/03 02:18:43;;;;;;;;;;;;;;;8.63;89.28;101278.41;4210861;28;20087;-67
2024/02/03 02:20:47;;;;;;;;;;;;;;;8.62;88.99;101279.38;4210864;28;20015;-67
2024/02/03 02:22:49;;;;;;;;;;;;;;;8.62;88.96;101282.06;4210554;28;20716;-67
2024/02/03 02:24:51;;;;;;;;;;;;;;;8.62;89.01;101290.16;4211113;28;20030;-68
2024/02/03 02:26:53;;;;;;;;;;;;;;;8.65;88.85;101281.78;4210840;28;20023;-68
2024/02/03 02:28:56;;;;;;;;;;;;;;;8.65;89.20;101271.88;4210738;28;20023;-67
2024/02/03 02:30:58;;;;;;;;;;;;;;;8.65;89.19;101273.69;4206300;28;20449;-67
2024/02/03 02:33:00;;;;;;;;;;;;;;;8.64;88.94;101270.16;4210470;28;20039;-67
2024/02/03 02:35:01;;;;;;;;;;;;;;;8.66;88.86;101268.16;4211140;28;20022;-68
2024/02/03 02:37:05;;;;;;;;;;;;;;;8.66;89.04;101262.78;4209053;28;20028;-68
2024/02/03 02:39:09;;;;;;;;;;;;;;;8.67;89.06;101263.66;4210317;28;20018;-67
2024/02/03 02:41:11;;;;;;;;;;;;;;;8.69;88.95;101269.72;4209104;28;20043;-67
2024/02/03 02:43:13;;;;;;;;;;;;;;;8.70;88.77;101263.34;4210058;28;20012;-67
2024/02/03 02:45:15;;;;;;;;;;;;;;;8.69;88.85;101260.81;4211083;28;20023;-66
2024/02/03 02:47:17;;;;;;;;;;;;;;;8.72;88.86;101280.19;4210467;28;20061;-67
2024/02/03 02:49:19;;;;;;;;;;;;;;;8.72;89.14;101255.13;4209920;28;20027;-67
2024/02/03 02:51:21;;;;;;;;;;;;;;;8.72;89.10;101264.03;4208222;28;19935;-67
2024/02/03 02:53:25;;;;;;;;;;;;;;;8.72;88.93;101260.50;4209061;28;20019;-67
2024/02/03 02:55:26;;;;;;;;;;;;;;;8.73;89.10;101257.66;4210632;28;20030;-67
2024/02/03 02:57:28;;;;;;;;;;;;;;;8.72;89.11;101257.81;4213460;28;20011;-67
2024/02/03 02:59:31;;;;;;;;;;;;;;;8.73;89.14;101264.88;4213862;28;20392;-67
2024/02/03 03:01:32;;;;;;;;;;;;;;;8.72;89.02;101261.34;4211792;28;20026;-67
2024/02/03 03:03:34;;;;;;;;;;;;;;;8.72;88.97;101261.34;4213004;28;20426;-67
2024/02/03 03:05:36;;;;;;;;;;;;;;;8.74;88.67;101264.72;4214736;28;20022;-67
2024/02/03 03:07:38;;;;;;;;;;;;;;;8.76;88.87;101261.88;4214426;28;20372;-66
2024/02/03 03:09:41;;;;;;;;;;;;;;;8.74;88.54;101255.78;4212986;28;20014;-67
2024/02/03 03:11:43;;;;;;;;;;;;;;;8.74;88.64;101253.94;4213008;28;19928;-67
2024/02/03 03:13:44;;;;;;;;;;;;;;;8.76;88.84;101259.19;4213797;28;20022;-67
2024/02/03 03:15:46;;;;;;;;;;;;;;;8.77;88.74;101259.03;4213571;28;20022;-67
2024/02/03 03:17:47;;;;;;;;;;;;;;;8.78;88.54;101251.81;4214285;28;20022;-67
2024/02/03 03:19:49;;;;;;;;;;;;;;;8.77;88.50;101248.25;4213429;28;19924;-67
2024/02/03 03:21:51;;;;;;;;;;;;;;;8.78;88.50;101254.50;4213576;28;20011;-67
2024/02/03 03:23:53;;;;;;;;;;;;;;;8.77;88.64;101250.94;4213768;28;20048;-68
2024/02/03 03:25:56;;;;;;;;;;;;;;;8.77;88.38;101250.94;4211761;28;20022;-68
2024/02/03 03:27:58;;;;;;;;;;;;;;;8.81;88.34;101251.50;4213131;28;20031;-67
2024/02/03 03:30:00;;;;;;;;;;;;;;;8.80;88.33;101245.25;4195050;28;20913;-67
2024/02/03 03:32:02;;;;;;;;;;;;;;;8.81;88.54;101248.81;4213013;28;20436;-68
2024/02/03 03:34:04;;;;;;;;;;;;;;;8.81;88.53;101248.81;4213393;28;20685;-68
2024/02/03 03:36:06;;;;;;;;;;;;;;;8.80;88.66;101249.81;4212461;28;20027;-67
2024/02/03 03:38:07;;;;;;;;;;;;;;;8.79;88.58;101251.66;4213700;28;20023;-68
2024/02/03 03:40:09;;;;;;;;;;;;;;;8.81;88.59;101259.59;4213178;28;20379;-67
2024/02/03 03:42:13;;;;;;;;;;;;;;;8.82;88.29;101250.50;4212864;28;20031;-66
2024/02/03 03:44:15;;;;;;;;;;;;;;;8.81;88.50;101260.44;4212441;28;20380;-66
2024/02/03 03:46:17;;;;;;;;;;;;;;;8.82;88.25;101259.44;4213324;28;20354;-68
2024/02/03 03:48:19;;;;;;;;;;;;;;;8.81;88.16;101256.91;4214137;28;20027;-67
2024/02/03 03:50:21;;;;;;;;;;;;;;;8.83;88.15;101255.72;4213411;28;20038;-67
2024/02/03 03:52:22;;;;;;;;;;;;;;;8.86;88.15;101264.53;4212585;28;19924;-66
2024/02/03 03:54:24;;;;;;;;;;;;;;;8.88;88.30;101271.44;4213357;28;19939;-67
2024/02/03 03:56:26;;;;;;;;;;;;;;;8.89;88.37;101258.81;4213206;28;20437;-68
2024/02/03 03:58:29;;;;;;;;;;;;;;;8.89;88.42;101272.28;4213777;28;20031;-68
2024/02/03 04:00:31;;;;;;;;;;;;;;;8.90;88.81;101261.34;4211457;28;20014;-67
2024/02/03 04:02:33;;;;;;;;;;;;;;;8.90;88.96;101261.34;4212166;28;20027;-67
2024/02/03 04:04:37;;;;;;;;;;;;;;;8.91;88.96;101254.97;4195450;28;20052;-67
2024/02/03 04:06:39;;;;;;;;;;;;;;;8.92;89.00;101253.97;4213326;28;20054;-66
2024/02/03 04:08:40;;;;;;;;;;;;;;;8.94;89.56;101261.91;4212904;28;20378;-67
2024/02/03 04:10:42;;;;;;;;;;;;;;;8.94;89.33;101254.66;4212506;28;19985;-68
2024/02/03 04:12:44;;;;;;;;;;;;;;;8.94;89.73;101268.13;4194046;28;19924;-67
2024/02/03 04:14:48;;;;;;;;;;;;;;;8.95;89.84;101263.56;4213695;28;20023;-68
2024/02/03 04:16:50;;;;;;;;;;;;;;;8.94;89.41;101275.38;4213597;28;20014;-68
2024/02/03 04:18:52;;;;;;;;;;;;;;;8.95;89.43;101266.25;4213134;28;20022;-68
2024/02/03 04:20:53;;;;;;;;;;;;;;;8.95;89.59;101261.75;4212335;28;20023;-67
2024/02/03 04:22:55;;;;;;;;;;;;;;;8.96;89.63;101257.19;4211463;28;20011;-67
2024/02/03 04:24:56;;;;;;;;;;;;;;;8.95;89.82;101256.34;4212996;28;20036;-68
2024/02/03 04:26:58;;;;;;;;;;;;;;;8.97;89.88;101258.91;4213166;28;20431;-68
2024/02/03 04:29:00;;;;;;;;;;;;;;;8.96;89.87;101257.19;4212775;28;20019;-68
2024/02/03 04:31:05;;;;;;;;;;;;;;;8.97;89.83;101257.03;4211302;28;20476;-67
2024/02/03 04:33:07;;;;;;;;;;;;;;;8.99;89.85;101263.09;4212584;28;20082;-67
2024/02/03 04:35:09;;;;;;;;;;;;;;;8.99;89.84;101262.28;4211959;28;20030;-67
2024/02/03 04:37:11;;;;;;;;;;;;;;;8.99;89.89;101255.03;4211980;28;20008;-67
2024/02/03 04:39:13;;;;;;;;;;;;;;;9.00;90.08;101259.44;4212356;28;20020;-67
2024/02/03 04:41:24;;;;;;;;;;;;;;;9.02;89.91;101252.03;4210773;28;20015;-67
2024/02/03 04:43:26;;;;;;;;;;;;;;;9.03;89.76;101250.19;4211899;28;20023;-67
2024/02/03 04:45:28;;;;;;;;;;;;;;;9.02;89.87;101264.66;4213075;28;20022;-67
2024/02/03 04:47:31;;;;;;;;;;;;;;;9.03;89.87;101252.91;4211958;28;20015;-67
2024/02/03 04:49:32;;;;;;;;;;;;;;;9.02;90.06;101251.19;4212250;28;20026;-67
2024/02/03 04:51:34;;;;;;;;;;;;;;;9.01;89.64;101250.34;4211242;28;19928;-67
2024/02/03 04:53:36;;;;;;;;;;;;;;;9.02;89.95;101254.72;4212260;28;19925;-68
2024/02/03 04:55:38;;;;;;;;;;;;;;;9.04;89.93;101253.72;4210384;28;20031;-68
2024/02/03 04:57:40;;;;;;;;;;;;;;;9.05;89.67;101244.66;4211189;28;20006;-67
2024/02/03 04:59:42;;;;;;;;;;;;;;;9.04;89.79;101264.50;4211324;28;20027;-68
2024/02/03 05:01:44;;;;;;;;;;;;;;;9.06;89.83;101251.72;4209128;28;20032;-68
2024/02/03 05:03:47;;;;;;;;;;;;;;;9.05;90.05;101250.88;4210906;28;20050;-67
2024/02/03 05:05:49;;;;;;;;;;;;;;;9.07;89.90;101245.34;4211863;28;20035;-67
2024/02/03 05:07:51;;;;;;;;;;;;;;;9.07;89.87;101256.13;4211829;28;20031;-67
2024/02/03 05:09:53;;;;;;;;;;;;;;;9.07;89.57;101256.13;4211480;28;20031;-67
2024/02/03 05:11:55;;;;;;;;;;;;;;;9.06;89.52;101257.09;4210410;28;20046;-68
2024/02/03 05:13:57;;;;;;;;;;;;;;;9.05;89.93;101258.97;4211310;28;19925;-67
2024/02/03 05:15:59;;;;;;;;;;;;;;;9.06;89.38;101249.03;4194597;28;20019;-68
2024/02/03 05:18:01;;;;;;;;;;;;;;;9.08;89.47;101260.53;4211316;28;20050;-67
2024/02/03 05:20:06;;;;;;;;;;;;;;;9.09;89.36;101259.50;4210335;28;20019;-67
2024/02/03 05:22:08;;;;;;;;;;;;;;;9.09;89.48;101267.56;4211399;28;20039;-66
2024/02/03 05:24:10;;;;;;;;;;;;;;;9.09;89.69;101259.50;4211687;28;20068;-67
2024/02/03 05:26:11;;;;;;;;;;;;;;;9.11;89.69;101279.06;4210980;28;20031;-67
2024/02/03 05:28:13;;;;;;;;;;;;;;;9.10;89.68;101264.72;4210807;28;20015;-67
2024/02/03 05:30:15;;;;;;;;;;;;;;;9.12;89.69;101272.66;4208312;28;20026;-67
2024/02/03 05:32:17;;;;;;;;;;;;;;;9.14;89.71;101260.75;4203990;28;20015;-68
2024/02/03 05:34:19;;;;;;;;;;;;;;;9.15;89.62;101262.44;4209933;28;19967;-67
2024/02/03 05:36:23;;;;;;;;;;;;;;;9.15;89.95;101262.44;4210600;28;20457;-68
2024/02/03 05:38:24;;;;;;;;;;;;;;;9.15;89.72;101265.13;4210702;28;20011;-67
2024/02/03 05:40:25;;;;;;;;;;;;;;;9.15;89.63;101256.19;4211524;28;19973;-67
2024/02/03 05:42:29;;;;;;;;;;;;;;;9.16;89.96;101247.94;4210640;28;20010;-68
2024/02/03 05:44:31;;;;;;;;;;;;;;;9.17;90.07;101259.59;4210487;28;20023;-68
2024/02/03 05:46:33;;;;;;;;;;;;;;;9.17;89.68;101255.03;4212110;28;20015;-67
2024/02/03 05:48:35;;;;;;;;;;;;;;;9.18;89.97;101259.44;4212045;28;20446;-67
2024/02/03 05:50:37;;;;;;;;;;;;;;;9.18;90.10;101256.75;4211316;28;20019;-67
2024/02/03 05:52:41;;;;;;;;;;;;;;;9.20;89.89;101251.19;4211663;28;20067;-67
2024/02/03 05:54:42;;;;;;;;;;;;;;;9.20;90.19;101253.88;4210581;28;20441;-67
2024/02/03 05:56:45;;;;;;;;;;;;;;;9.20;90.23;101270.06;4210571;28;20019;-68
2024/02/03 05:58:47;;;;;;;;;;;;;;;9.21;90.15;101258.25;4209812;28;20011;-67
2024/02/03 06:00:49;;;;;;;;;;;;;;;9.21;89.96;101255.56;4209681;28;20030;-68
2024/02/03 06:02:50;;;;;;;;;;;;;;;9.21;89.90;101255.56;4211079;28;20011;-67
2024/02/03 06:04:52;;;;;;;;;;;;;;;9.21;89.94;101255.56;4211115;28;20018;-67
2024/02/03 06:06:53;;;;;;;;;;;;;;;9.22;89.90;101259.13;4211207;28;20364;-68
2024/02/03 06:08:56;;;;;;;;;;;;;;;9.22;90.26;101254.56;4211435;28;19924;-67
2024/02/03 06:10:58;;;;;;;;;;;;;;;9.25;90.26;101258.78;4210713;28;20007;-69
2024/02/03 06:13:00;;;;;;;;;;;;;;;9.25;90.30;101262.34;4210606;28;20058;-68
2024/02/03 06:15:03;;;;;;;;;;;;;;;9.27;90.37;101264.88;4210462;28;20538;-68
2024/02/03 06:17:04;;;;;;;;;;;;;;;9.27;90.42;101278.38;4211348;28;20469;-67
2024/02/03 06:19:06;;;;;;;;;;;;;;;9.28;90.37;101272.81;4211347;28;20019;-68
2024/02/03 06:21:08;;;;;;;;;;;;;;;9.27;90.80;101273.81;4193167;28;20015;-67
2024/02/03 06:23:10;;;;;;;;;;;;;;;9.28;90.37;101271.94;4210581;28;20023;-67
2024/02/03 06:25:13;;;;;;;;;;;;;;;9.28;90.31;101272.81;4210988;28;20950;-68
2024/02/03 06:27:15;;;;;;;;;;;;;;;9.29;90.51;101260.19;4210850;28;20024;-68
2024/02/03 06:29:17;;;;;;;;;;;;;;;9.29;90.35;101257.47;4210622;28;20054;-68
2024/02/03 06:31:19;;;;;;;;;;;;;;;9.29;90.59;101270.97;4208841;28;20357;-68
2024/02/03 06:33:21;;;;;;;;;;;;;;;9.30;90.34;101273.50;4211634;28;20411;-67
2024/02/03 06:35:23;;;;;;;;;;;;;;;9.30;90.73;101269.97;4211461;28;19925;-67
2024/02/03 06:37:25;;;;;;;;;;;;;;;9.30;90.56;101273.50;4210722;28;20006;-67
2024/02/03 06:39:26;;;;;;;;;;;;;;;9.29;90.50;101269.09;4210720;28;20014;-68
2024/02/03 06:41:29;;;;;;;;;;;;;;;9.30;90.85;101265.41;4210215;28;19932;-67
2024/02/03 06:43:30;;;;;;;;;;;;;;;9.30;90.75;101275.38;4211055;28;20385;-67
2024/02/03 06:45:33;;;;;;;;;;;;;;;9.30;90.38;101268.09;4210873;28;19925;-67
2024/02/03 06:47:35;;;;;;;;;;;;;;;9.31;90.70;101271.63;4210307;28;20031;-67
2024/02/03 06:49:37;;;;;;;;;;;;;;;9.30;90.75;101276.19;4210093;28;20022;-67
2024/02/03 06:51:38;;;;;;;;;;;;;;;9.30;90.53;101269.97;4192632;28;20030;-67
2024/02/03 06:53:40;;;;;;;;;;;;;;;9.32;90.56;101273.34;4209912;28;20011;-67
2024/02/03 06:55:42;;;;;;;;;;;;;;;9.33;90.76;101265.09;4209633;28;19928;-68
2024/02/03 06:57:45;;;;;;;;;;;;;;;9.35;91.25;101265.78;4208718;28;20015;-68
2024/02/03 06:59:47;;;;;;;;;;;;;;;9.37;91.43;101268.31;4209491;28;20043;-67
2024/02/03 07:01:50;;;;;;;;;;;;;;;9.37;91.02;101277.28;4207215;28;20059;-66
2024/02/03 07:03:52;;;;;;;;;;;;;;;9.36;91.35;101278.28;4208207;28;20026;-68
2024/02/03 07:05:54;;;;;;;;;;;;;;;9.35;91.40;101265.78;4210794;28;20039;-67
2024/02/03 07:07:56;;;;;;;;;;;;;;;9.37;91.62;101276.41;4210561;28;20027;-67
2024/02/03 07:09:59;;;;;;;;;;;;;;;9.37;91.37;101282.66;4209313;28;20636;-66
2024/02/03 07:12:01;;;;;;;;;;;;;;;9.37;91.68;101282.66;4210183;28;20023;-68
2024/02/03 07:14:04;;;;;;;;;;;;;;;9.38;91.67;101294.28;4210088;28;20011;-67
2024/02/03 07:16:05;;;;;;;;;;;;;;;9.38;91.88;101297.81;4209724;28;19982;-69
2024/02/03 07:18:07;;;;;;;;;;;;;;;9.37;91.65;101277.28;4209927;28;20363;-67
2024/02/03 07:20:10;;;;;;;;;;;;;;;9.36;91.55;101280.13;4210653;28;20027;-66
2024/02/03 07:22:12;;;;;;;;;;;;;;;9.39;91.88;101277.13;4209833;28;20023;-67
2024/02/03 07:24:14;;;;;;;;;;;;;;;9.38;91.84;101287.03;4209584;28;20027;-67
2024/02/03 07:26:16;;;;;;;;;;;;;;;9.38;91.65;101300.53;4206996;28;20361;-67
2024/02/03 07:28:18;;;;;;;;;;;;;;;9.41;91.51;101298.53;4206979;28;20023;-67
2024/02/03 07:30:21;;;;;;;;;;;;;;;9.40;91.61;101286.88;4209068;28;20023;-66
2024/02/03 07:32:23;;;;;;;;;;;;;;;9.41;91.92;101293.97;4209377;28;20023;-67
2024/02/03 07:34:24;;;;;;;;;;;;;;;9.41;91.96;101293.16;4208354;28;20043;-68
2024/02/03 07:36:27;;;;;;;;;;;;;;;9.40;92.15;101297.66;4210014;28;20041;-67
2024/02/03 07:38:30;;;;;;;;;;;;;;;9.42;92.20;101305.59;4184664;28;19960;-67
2024/02/03 07:40:32;;;;;;;;;;;;;;;9.42;92.34;101308.31;4208641;28;20364;-66
2024/02/03 07:42:33;;;;;;;;;;;;;;;9.43;92.26;101299.22;4191663;28;20011;-67
2024/02/03 07:44:36;;;;;;;;;;;;;;;9.44;92.62;101304.44;4212582;28;20043;-67
2024/02/03 07:46:40;;;;;;;;;;;;;;;9.43;92.99;101302.75;4212719;28;20015;-68
2024/02/03 07:48:42;;;;;;;;;;;;;;;9.45;93.04;101332.25;4212561;28;20876;-69
2024/02/03 07:50:44;;;;;;;;;;;;;;;9.45;92.85;101316.94;4210880;28;20015;-69
2024/02/03 07:52:46;;;;;;;;;;;;;;;9.46;92.88;101304.31;4212202;28;20034;-67
2024/02/03 07:54:48;;;;;;;;;;;;;;;9.45;92.87;101316.06;4212813;28;20610;-67
2024/02/03 07:56:50;;;;;;;;;;;;;;;9.47;93.03;101314.94;4212667;28;20026;-67
2024/02/03 07:58:52;;;;;;;;;;;;;;;9.46;93.04;101312.38;4212329;28;20015;-66
2024/02/03 08:00:54;;;;;;;;;;;;;;;9.44;93.35;101322.50;4211724;28;20047;-67
2024/02/03 08:02:57;;;;;;;;;;;;;;;9.46;93.05;101320.47;4211418;28;20030;-68
2024/02/03 08:04:59;;;;;;;;;;;;;;;9.44;93.23;101320.63;4212903;28;20364;-69
2024/02/03 08:07:01;;;;;;;;;;;;;;;9.46;93.09;101312.38;4212266;28;20354;-69
2024/02/03 08:09:03;;;;;;;;;;;;;;;9.44;93.17;101320.63;4212536;28;19935;-69
2024/02/03 08:11:05;;;;;;;;;;;;;;;9.45;93.46;101321.47;4212861;28;20015;-68
2024/02/03 08:13:07;;;;;;;;;;;;;;;9.44;93.37;101317.09;4211157;28;20011;-69
2024/02/03 08:15:08;;;;;;;;;;;;;;;9.44;93.41;101328.72;4211649;28;20031;-69
2024/02/03 08:17:11;;;;;;;;;;;;;;;9.45;93.34;101302.59;4211902;28;20036;-69
2024/02/03 08:19:14;;;;;;;;;;;;;;;9.46;93.30;101318.63;4212915;28;20022;-68
2024/02/03 08:21:16;;;;;;;;;;;;;;;9.46;93.56;101315.91;4211723;28;20022;-70
2024/02/03 08:23:18;;;;;;;;;;;;;;;9.47;93.89;101322.19;4211444;28;20019;-68
2024/02/03 08:25:19;;;;;;;;;;;;;;;9.47;93.55;101311.41;4211688;28;20441;-68
2024/02/03 08:27:21;;;;;;;;;;;;;;;9.46;93.62;101305.13;4211555;28;20067;-69
2024/02/03 08:29:24;;;;;;;;;;;;;;;9.47;93.84;101325.72;4212077;28;20006;-69
2024/02/03 08:31:26;;;;;;;;;;;;;;;9.50;93.70;101309.22;4210959;28;20015;-69
2024/02/03 08:33:28;;;;;;;;;;;;;;;9.50;93.74;101306.53;4211606;28;20046;-69
2024/02/03 08:35:31;;;;;;;;;;;;;;;9.51;93.88;101301.97;4211155;28;19927;-68
2024/02/03 08:37:32;;;;;;;;;;;;;;;9.50;94.37;101303.00;4212339;28;19924;-69
2024/02/03 08:39:34;;;;;;;;;;;;;;;9.50;94.24;101311.09;4212253;28;20019;-69
2024/02/03 08:41:36;;;;;;;;;;;;;;;9.52;94.17;101293.72;4212155;28;20038;-69
2024/02/03 08:43:38;;;;;;;;;;;;;;;9.51;94.17;101296.59;4209879;28;20018;-69
2024/02/03 08:45:40;;;;;;;;;;;;;;;9.52;94.36;101317.16;4210441;28;20014;-69
2024/02/03 08:47:42;;;;;;;;;;;;;;;9.54;94.10;101290.88;4210547;28;20020;-69
2024/02/03 08:49:50;;;;;;;;;;;;;;;9.51;94.28;101291.19;4209366;28;20452;-69
2024/02/03 08:51:53;;;;;;;;;;;;;;;9.50;94.55;101290.34;4209761;28;20027;-69
2024/02/03 08:53:54;;;;;;;;;;;;;;;9.50;94.34;101271.47;4209608;28;20027;-69
2024/02/03 08:55:56;;;;;;;;;;;;;;;9.50;94.39;101282.25;4209922;28;20348;-69
2024/02/03 08:57:58;;;;;;;;;;;;;;;9.52;94.41;101290.19;4209795;28;19928;-69
2024/02/03 08:59:59;;;;;;;;;;;;;;;9.51;94.52;101283.97;4210114;28;20014;-70
2024/02/03 09:02:01;;;;;;;;;;;;;;;9.51;94.69;101292.06;4209433;28;20046;-69
2024/02/03 09:04:04;;;;;;;;;;;;;;;9.50;94.60;101279.56;4210436;28;20085;-69
2024/02/03 09:06:06;;;;;;;;;;;;;;;9.51;94.63;101289.34;4210076;28;20022;-69
2024/02/03 09:08:13;;;;;;;;;;;;;;;9.52;94.49;101290.19;4208289;28;19928;-69
2024/02/03 09:10:15;;;;;;;;;;;;;;;9.53;94.33;101298.13;4208237;28;20444;-69
2024/02/03 09:12:16;;;;;;;;;;;;;;;9.54;94.62;101291.75;4209952;28;20031;-69
2024/02/03 09:14:18;;;;;;;;;;;;;;;9.52;94.52;101306.38;4209639;28;20035;-69
2024/02/03 09:16:20;;;;;;;;;;;;;;;9.55;94.54;101306.91;4209009;28;20020;-69
2024/02/03 09:18:22;;;;;;;;;;;;;;;9.55;94.53;101298.81;4209343;28;19928;-69
2024/02/03 09:20:25;;;;;;;;;;;;;;;9.58;94.48;101311.16;4209680;28;20023;-70
2024/02/03 09:22:27;;;;;;;;;;;;;;;9.57;94.83;101301.34;4209802;28;19924;-69
2024/02/03 09:24:30;;;;;;;;;;;;;;;9.57;94.65;101314.84;4210254;28;20019;-69
2024/02/03 09:26:32;;;;;;;;;;;;;;;9.58;94.69;101308.44;4190906;28;19932;-70
2024/02/03 09:28:34;;;;;;;;;;;;;;;9.59;94.76;101306.59;4210299;28;19928;-70
2024/02/03 09:30:37;;;;;;;;;;;;;;;9.59;94.89;101312.81;4209188;28;20010;-70
2024/02/03 09:32:39;;;;;;;;;;;;;;;9.61;94.69;101301.88;4208774;28;20027;-70
2024/02/03 09:34:47;;;;;;;;;;;;;;;9.61;94.57;101304.56;4209800;28;19938;-70
2024/02/03 09:36:49;;;;;;;;;;;;;;;9.62;94.72;101311.66;4209671;28;20023;-71
2024/02/03 09:38:51;;;;;;;;;;;;;;;9.61;94.63;101312.66;4210895;28;19924;-71
2024/02/03 09:40:55;;;;;;;;;;;;;;;9.61;94.77;101321.63;4208983;28;20027;-71
2024/02/03 09:42:57;;;;;;;;;;;;;;;9.61;94.69;101327.00;4209825;28;20027;-71
2024/02/03 09:44:59;;;;;;;;;;;;;;;9.62;94.78;101322.47;4211094;28;20014;-72
2024/02/03 09:47:01;;;;;;;;;;;;;;;9.61;94.94;101335.09;4211444;28;20018;-70
2024/02/03 09:49:03;;;;;;;;;;;;;;;9.60;94.82;101328.00;4209554;28;20015;-70
2024/02/03 09:51:05;;;;;;;;;;;;;;;9.63;94.96;101333.09;4210403;28;20019;-71
2024/02/03 09:53:07;;;;;;;;;;;;;;;9.64;95.01;101324.00;4209958;28;20023;-72
2024/02/03 09:55:09;;;;;;;;;;;;;;;9.65;95.10;101328.38;4211462;28;20023;-72
2024/02/03 09:57:13;;;;;;;;;;;;;;;9.67;94.91;101342.56;4209797;28;20433;-71
2024/02/03 09:59:15;;;;;;;;;;;;;;;9.67;95.06;101345.28;4210801;28;20388;-71
2024/02/03 10:01:16;;;;;;;;;;;;;;;9.67;95.37;101342.56;4209364;28;20027;-71
2024/02/03 10:03:19;;;;;;;;;;;;;;;9.67;95.49;101336.31;4209940;28;19938;-70
2024/02/03 10:05:28;;;;;;;;;;;;;;;9.68;95.40;101333.47;4208425;28;19924;-71
2024/02/03 10:07:29;;;;;;;;;;;;;;;9.69;95.18;101355.91;4211233;28;20007;-71
2024/02/03 10:09:31;;;;;;;;;;;;;;;9.70;95.25;101327.91;4210875;28;19924;-69
2024/02/03 10:11:37;;;;;;;;;;;;;;;9.72;95.57;101328.63;4208750;28;20438;-69
2024/02/03 10:13:41;;;;;;;;;;;;;;;9.72;95.41;101337.53;4208676;28;20022;-69
2024/02/03 10:15:43;;;;;;;;;;;;;;;9.73;95.59;101328.47;4209479;28;20032;-68
2024/02/03 10:17:45;;;;;;;;;;;;;;;9.73;95.69;101325.75;4193255;28;20016;-69
2024/02/03 10:19:47;;;;;;;;;;;;;;;9.73;95.39;101327.59;4208011;28;19932;-70
2024/02/03 10:21:49;;;;;;;;;;;;;;;9.73;95.66;101316.81;4209963;28;20014;-71
2024/02/03 10:23:52;;;;;;;;;;;;;;;9.72;95.52;101321.38;4209137;28;20019;-71
2024/02/03 10:25:56;;;;;;;;;;;;;;;9.72;95.52;101326.75;4210067;28;20016;-71
2024/02/03 10:28:03;;;;;;;;;;;;;;;9.74;95.45;101313.13;4208981;28;20015;-70
2024/02/03 10:30:07;;;;;;;;;;;;;;;9.74;95.42;101342.78;4209235;28;20368;-71
2024/02/03 10:32:09;;;;;;;;;;;;;;;9.74;95.33;101313.94;4208977;28;20036;-71
2024/02/03 10:34:11;;;;;;;;;;;;;;;9.77;95.14;101309.25;4209787;28;20050;-71
2024/02/03 10:36:13;;;;;;;;;;;;;;;9.78;95.48;101292.91;4208787;28;20016;-71
2024/02/03 10:38:15;;;;;;;;;;;;;;;9.80;95.28;101290.06;4211354;28;20612;-71